Stoneykirk, United Kingdom

2:10 PM BST on August 29, 2015 (GMT +0100)
Lochans | | Change Station
CLOSE
Current Station
Personal Weather Station
Location: Stranraer, WIGTOWNSHIRE
Elevation: 90 ft
Nearby Weather Stations

Elev 90 ft 54.87 °N, 5.01 °W | Updated 2 minutes ago

Light Rain Showers
Light Showers Rain
60.8 °F
Feels Like 60.8 °F
N
6.0
Wind Variable Wind from South
Gusts 14.0 mph

Today
High -- | Low -- °F
--% Chance of Precip.
Yesterday
High -- | Low -- °F
Precip. -- in
6:20 AM 8:20 PM
Full, 100% visible
Pressure 29.95 in
Visibility 6.2 miles
Clouds Few 2200 ft
Scattered Clouds 4000 ft
Dew Point 56 °F
Humidity 85%
Rainfall 0.00 in
Snow Depth Not available.
UV 2.5 out of 12
Pollen Not available.
Air Quality Not available.
Flu Activity Not available.
METAR EGAC 291250Z 22011KT 9999 -SHRA FEW022 SCT040 17/08 Q1014
Pressure 29.95 in
Visibility 6.2 miles
Clouds Few 2200 ft
Scattered Clouds 4000 ft
Dew Point 56 °F
Humidity 85%
Rainfall 0.00 in
Snow Depth Not available.
UV 2.5 out of 12
Pollen Not available.
Air Quality Not available.
Flu Activity Not available.
METAR EGAC 291250Z 22011KT 9999 -SHRA FEW022 SCT040 17/08 Q1014

10-Day Weather Forecast

×

Almanac

Astronomy

Aug. 29, 2015 Rise Set
Actual Time
Civil Twilight
Nautical Twilight
Astronomical Twilight
Moon
Length of Visible Light
Length of Day
Tomorrow will be .
, % of the Moon is Illuminated

Today's Extremes

Country Highs Country Lows

Community

WunderPhotos

Upload Photos

1,850,681 photos uploaded!

WunderBlogs® & News

Nearby

Air Quality

  Air Quality AQ Index Pollutant
Not available.

Snow Depth

Station Depth Elevation

Earthquake Activity

City Distance Mag. Time & Date
Minimum magnitude displayed is 2.5.

Coastal Water Temperatures

Place Temperature

Stations

Nearby Weather Stations

Station Location Temp. Windchill Dew Point Humidity Wind Precip. Elev Updated Type